sensor_id;sensor_type;location;lat;lon;timestamp;temperature;humidity
36442;DHT22;64346;50.820;16.274;2023-03-23T00:01:20;12.70;99.90
36442;DHT22;64346;50.820;16.274;2023-03-23T00:03:48;12.50;99.90
36442;DHT22;64346;50.820;16.274;2023-03-23T00:06:16;12.50;99.90
36442;DHT22;64346;50.820;16.274;2023-03-23T00:08:44;12.30;99.90
36442;DHT22;64346;50.820;16.274;2023-03-23T00:11:17;12.20;99.90
36442;DHT22;64346;50.820;16.274;2023-03-23T00:13:43;12.20;99.90
36442;DHT22;64346;50.820;16.274;2023-03-23T00:16:13;12.10;99.90
36442;DHT22;64346;50.820;16.274;2023-03-23T00:18:39;12.10;99.90
36442;DHT22;64346;50.820;16.274;2023-03-23T00:21:06;12.10;99.90
36442;DHT22;64346;50.820;16.274;2023-03-23T00:23:31;12.10;99.90
36442;DHT22;64346;50.820;16.274;2023-03-23T00:25:58;12.10;99.90
36442;DHT22;64346;50.820;16.274;2023-03-23T00:28:25;12.20;99.50
36442;DHT22;64346;50.820;16.274;2023-03-23T00:31:04;12.30;99.50
36442;DHT22;64346;50.820;16.274;2023-03-23T00:33:32;12.30;99.40
36442;DHT22;64346;50.820;16.274;2023-03-23T00:36:01;12.40;98.60
36442;DHT22;64346;50.820;16.274;2023-03-23T00:38:27;12.40;97.60
36442;DHT22;64346;50.820;16.274;2023-03-23T00:40:56;12.50;98.10
36442;DHT22;64346;50.820;16.274;2023-03-23T00:43:24;12.60;97.10
36442;DHT22;64346;50.820;16.274;2023-03-23T00:45:50;12.60;96.70
36442;DHT22;64346;50.820;16.274;2023-03-23T00:48:16;12.70;97.00
36442;DHT22;64346;50.820;16.274;2023-03-23T00:50:43;12.70;97.00
36442;DHT22;64346;50.820;16.274;2023-03-23T00:53:09;12.70;96.60
36442;DHT22;64346;50.820;16.274;2023-03-23T00:55:37;12.70;96.50
36442;DHT22;64346;50.820;16.274;2023-03-23T00:58:03;12.70;97.20
36442;DHT22;64346;50.820;16.274;2023-03-23T01:00:32;12.60;97.10
36442;DHT22;64346;50.820;16.274;2023-03-23T01:03:00;12.60;97.20
36442;DHT22;64346;50.820;16.274;2023-03-23T01:05:29;12.60;97.70
36442;DHT22;64346;50.820;16.274;2023-03-23T01:07:59;12.50;97.70
36442;DHT22;64346;50.820;16.274;2023-03-23T01:10:28;12.50;97.80
36442;DHT22;64346;50.820;16.274;2023-03-23T01:12:54;12.40;97.90
36442;DHT22;64346;50.820;16.274;2023-03-23T01:15:21;12.40;97.80
36442;DHT22;64346;50.820;16.274;2023-03-23T01:17:50;12.40;97.70
36442;DHT22;64346;50.820;16.274;2023-03-23T01:20:16;12.40;97.60
36442;DHT22;64346;50.820;16.274;2023-03-23T01:22:42;12.40;97.70
36442;DHT22;64346;50.820;16.274;2023-03-23T01:25:10;12.40;97.60
36442;DHT22;64346;50.820;16.274;2023-03-23T01:27:37;12.40;97.10
36442;DHT22;64346;50.820;16.274;2023-03-23T01:30:05;12.50;97.00
36442;DHT22;64346;50.820;16.274;2023-03-23T01:32:34;12.50;96.70
36442;DHT22;64346;50.820;16.274;2023-03-23T01:35:01;12.50;97.10
36442;DHT22;64346;50.820;16.274;2023-03-23T01:37:27;12.50;97.00
36442;DHT22;64346;50.820;16.274;2023-03-23T01:39:54;12.60;97.10
36442;DHT22;64346;50.820;16.274;2023-03-23T01:42:31;12.50;97.10
36442;DHT22;64346;50.820;16.274;2023-03-23T01:47:55;12.60;97.30
36442;DHT22;64346;50.820;16.274;2023-03-23T01:50:26;12.50;97.50
36442;DHT22;64346;50.820;16.274;2023-03-23T01:52:55;12.60;97.80
36442;DHT22;64346;50.820;16.274;2023-03-23T01:55:25;12.50;98.00
36442;DHT22;64346;50.820;16.274;2023-03-23T01:57:54;12.40;98.10
36442;DHT22;64346;50.820;16.274;2023-03-23T02:00:22;12.40;98.20
36442;DHT22;64346;50.820;16.274;2023-03-23T02:02:50;12.40;98.20
36442;DHT22;64346;50.820;16.274;2023-03-23T02:05:30;12.40;98.10
36442;DHT22;64346;50.820;16.274;2023-03-23T02:07:59;12.40;98.20
36442;DHT22;64346;50.820;16.274;2023-03-23T02:10:26;12.50;98.00
36442;DHT22;64346;50.820;16.274;2023-03-23T02:12:52;12.50;98.00
36442;DHT22;64346;50.820;16.274;2023-03-23T02:15:19;12.50;98.00
36442;DHT22;64346;50.820;16.274;2023-03-23T02:18:08;12.50;98.20
36442;DHT22;64346;50.820;16.274;2023-03-23T02:32:14;12.60;97.70
36442;DHT22;64346;50.820;16.274;2023-03-23T02:34:54;12.60;97.50
36442;DHT22;64346;50.820;16.274;2023-03-23T02:37:36;12.70;97.20
36442;DHT22;64346;50.820;16.274;2023-03-23T02:40:14;12.70;96.90
36442;DHT22;64346;50.820;16.274;2023-03-23T02:42:45;12.80;96.90
36442;DHT22;64346;50.820;16.274;2023-03-23T02:45:14;12.90;96.60
36442;DHT22;64346;50.820;16.274;2023-03-23T02:47:44;13.00;96.60
36442;DHT22;64346;50.820;16.274;2023-03-23T02:50:14;13.00;96.30
36442;DHT22;64346;50.820;16.274;2023-03-23T02:52:41;13.00;96.30
36442;DHT22;64346;50.820;16.274;2023-03-23T02:55:12;13.00;96.40
36442;DHT22;64346;50.820;16.274;2023-03-23T02:57:39;13.00;96.50
36442;DHT22;64346;50.820;16.274;2023-03-23T03:00:07;13.10;96.60
36442;DHT22;64346;50.820;16.274;2023-03-23T03:02:36;13.10;96.50
36442;DHT22;64346;50.820;16.274;2023-03-23T03:08:18;13.10;96.60
36442;DHT22;64346;50.820;16.274;2023-03-23T03:11:05;13.10;96.70
36442;DHT22;64346;50.820;16.274;2023-03-23T03:16:30;13.10;96.70
36442;DHT22;64346;50.820;16.274;2023-03-23T03:21:28;13.00;96.80
36442;DHT22;64346;50.820;16.274;2023-03-23T03:23:59;13.00;96.90
36442;DHT22;64346;50.820;16.274;2023-03-23T03:26:29;13.00;97.10
36442;DHT22;64346;50.820;16.274;2023-03-23T03:28:59;12.90;97.10
36442;DHT22;64346;50.820;16.274;2023-03-23T03:31:31;12.90;97.30
36442;DHT22;64346;50.820;16.274;2023-03-23T03:34:02;12.90;97.20
36442;DHT22;64346;50.820;16.274;2023-03-23T03:36:30;12.90;97.20
36442;DHT22;64346;50.820;16.274;2023-03-23T03:38:59;12.90;97.10
36442;DHT22;64346;50.820;16.274;2023-03-23T03:41:25;13.00;97.10
36442;DHT22;64346;50.820;16.274;2023-03-23T03:43:51;13.00;96.90
36442;DHT22;64346;50.820;16.274;2023-03-23T03:46:17;13.00;96.90
36442;DHT22;64346;50.820;16.274;2023-03-23T03:48:43;13.00;96.90
36442;DHT22;64346;50.820;16.274;2023-03-23T03:51:12;13.10;96.50
36442;DHT22;64346;50.820;16.274;2023-03-23T03:53:40;13.10;96.50
36442;DHT22;64346;50.820;16.274;2023-03-23T03:56:11;13.20;96.30
36442;DHT22;64346;50.820;16.274;2023-03-23T03:58:40;13.20;96.40
36442;DHT22;64346;50.820;16.274;2023-03-23T04:01:08;13.20;96.10
36442;DHT22;64346;50.820;16.274;2023-03-23T04:03:34;13.20;96.10
36442;DHT22;64346;50.820;16.274;2023-03-23T04:06:01;13.20;96.10
36442;DHT22;64346;50.820;16.274;2023-03-23T04:08:27;13.30;96.00
36442;DHT22;64346;50.820;16.274;2023-03-23T04:10:55;13.20;95.80
36442;DHT22;64346;50.820;16.274;2023-03-23T04:13:30;13.30;95.80
36442;DHT22;64346;50.820;16.274;2023-03-23T04:15:59;13.30;95.70
36442;DHT22;64346;50.820;16.274;2023-03-23T04:18:26;13.20;95.70
36442;DHT22;64346;50.820;16.274;2023-03-23T04:20:52;13.30;95.70
36442;DHT22;64346;50.820;16.274;2023-03-23T04:23:19;13.30;95.70
36442;DHT22;64346;50.820;16.274;2023-03-23T04:25:49;13.30;96.30
36442;DHT22;64346;50.820;16.274;2023-03-23T04:28:16;13.20;96.70
36442;DHT22;64346;50.820;16.274;2023-03-23T04:30:45;13.00;96.90
36442;DHT22;64346;50.820;16.274;2023-03-23T04:33:14;12.90;97.10
36442;DHT22;64346;50.820;16.274;2023-03-23T04:35:41;12.80;97.30
36442;DHT22;64346;50.820;16.274;2023-03-23T04:38:10;12.80;97.40
36442;DHT22;64346;50.820;16.274;2023-03-23T04:40:37;12.80;97.60
36442;DHT22;64346;50.820;16.274;2023-03-23T04:43:04;12.70;97.70
36442;DHT22;64346;50.820;16.274;2023-03-23T04:45:30;12.70;97.80
36442;DHT22;64346;50.820;16.274;2023-03-23T04:47:56;12.70;97.80
36442;DHT22;64346;50.820;16.274;2023-03-23T04:50:22;12.60;97.70
36442;DHT22;64346;50.820;16.274;2023-03-23T04:52:50;12.70;97.70
36442;DHT22;64346;50.820;16.274;2023-03-23T04:55:16;12.70;97.80
36442;DHT22;64346;50.820;16.274;2023-03-23T04:57:46;12.60;97.90
36442;DHT22;64346;50.820;16.274;2023-03-23T05:00:15;12.60;98.00
36442;DHT22;64346;50.820;16.274;2023-03-23T05:02:45;12.60;98.00
36442;DHT22;64346;50.820;16.274;2023-03-23T05:05:14;12.60;98.20
36442;DHT22;64346;50.820;16.274;2023-03-23T05:07:41;12.60;98.30
36442;DHT22;64346;50.820;16.274;2023-03-23T05:10:11;12.60;98.30
36442;DHT22;64346;50.820;16.274;2023-03-23T05:12:40;12.60;98.30
36442;DHT22;64346;50.820;16.274;2023-03-23T05:15:07;12.60;98.30
36442;DHT22;64346;50.820;16.274;2023-03-23T05:17:37;12.70;98.30
36442;DHT22;64346;50.820;16.274;2023-03-23T05:20:04;12.70;98.30
36442;DHT22;64346;50.820;16.274;2023-03-23T05:22:33;12.80;98.40
36442;DHT22;64346;50.820;16.274;2023-03-23T05:25:02;12.80;98.40
36442;DHT22;64346;50.820;16.274;2023-03-23T05:27:29;12.80;98.70
36442;DHT22;64346;50.820;16.274;2023-03-23T05:29:58;12.80;98.80
36442;DHT22;64346;50.820;16.274;2023-03-23T05:32:25;12.80;98.80
36442;DHT22;64346;50.820;16.274;2023-03-23T05:34:51;12.80;98.80
36442;DHT22;64346;50.820;16.274;2023-03-23T05:37:17;12.80;98.80
36442;DHT22;64346;50.820;16.274;2023-03-23T05:39:46;12.80;99.00
36442;DHT22;64346;50.820;16.274;2023-03-23T05:42:12;12.80;99.10
36442;DHT22;64346;50.820;16.274;2023-03-23T05:44:38;12.80;99.10
36442;DHT22;64346;50.820;16.274;2023-03-23T05:47:04;12.90;99.10
36442;DHT22;64346;50.820;16.274;2023-03-23T05:49:30;12.90;99.20
36442;DHT22;64346;50.820;16.274;2023-03-23T05:51:57;12.90;99.10
36442;DHT22;64346;50.820;16.274;2023-03-23T05:54:23;13.00;99.20
36442;DHT22;64346;50.820;16.274;2023-03-23T05:56:54;13.00;99.10
36442;DHT22;64346;50.820;16.274;2023-03-23T05:59:20;13.20;99.00
36442;DHT22;64346;50.820;16.274;2023-03-23T06:01:46;13.30;98.80
36442;DHT22;64346;50.820;16.274;2023-03-23T06:04:13;13.40;98.70
36442;DHT22;64346;50.820;16.274;2023-03-23T06:06:39;13.60;98.50
36442;DHT22;64346;50.820;16.274;2023-03-23T06:09:09;13.60;98.20
36442;DHT22;64346;50.820;16.274;2023-03-23T06:11:38;13.80;98.00
36442;DHT22;64346;50.820;16.274;2023-03-23T06:14:04;13.80;97.80
36442;DHT22;64346;50.820;16.274;2023-03-23T06:16:33;14.00;97.90
36442;DHT22;64346;50.820;16.274;2023-03-23T06:18:59;14.00;97.70
36442;DHT22;64346;50.820;16.274;2023-03-23T06:21:30;14.10;97.80
36442;DHT22;64346;50.820;16.274;2023-03-23T06:23:56;15.20;96.70
36442;DHT22;64346;50.820;16.274;2023-03-23T06:26:25;16.10;95.20
36442;DHT22;64346;50.820;16.274;2023-03-23T06:28:55;16.60;94.40
36442;DHT22;64346;50.820;16.274;2023-03-23T06:31:21;16.70;93.90
36442;DHT22;64346;50.820;16.274;2023-03-23T06:33:47;17.40;93.60
36442;DHT22;64346;50.820;16.274;2023-03-23T06:36:13;19.60;90.50
36442;DHT22;64346;50.820;16.274;2023-03-23T06:38:42;22.60;84.50
36442;DHT22;64346;50.820;16.274;2023-03-23T06:41:08;25.20;75.50
36442;DHT22;64346;50.820;16.274;2023-03-23T06:43:34;27.10;67.00
36442;DHT22;64346;50.820;16.274;2023-03-23T06:46:01;27.80;63.00
36442;DHT22;64346;50.820;16.274;2023-03-23T06:48:27;28.80;60.60
36442;DHT22;64346;50.820;16.274;2023-03-23T06:50:59;30.20;57.60
36442;DHT22;64346;50.820;16.274;2023-03-23T06:53:25;30.80;55.20
36442;DHT22;64346;50.820;16.274;2023-03-23T06:55:51;29.00;55.10
36442;DHT22;64346;50.820;16.274;2023-03-23T06:58:19;28.00;56.70
36442;DHT22;64346;50.820;16.274;2023-03-23T07:00:46;27.40;56.70
36442;DHT22;64346;50.820;16.274;2023-03-23T07:03:15;26.50;57.80
36442;DHT22;64346;50.820;16.274;2023-03-23T07:05:41;26.00;58.40
36442;DHT22;64346;50.820;16.274;2023-03-23T07:08:07;25.10;59.20
36442;DHT22;64346;50.820;16.274;2023-03-23T07:10:36;24.10;60.90
36442;DHT22;64346;50.820;16.274;2023-03-23T07:13:01;23.30;62.40
36442;DHT22;64346;50.820;16.274;2023-03-23T07:15:30;22.50;63.80
36442;DHT22;64346;50.820;16.274;2023-03-23T07:17:56;21.70;65.20
36442;DHT22;64346;50.820;16.274;2023-03-23T07:20:22;21.30;65.90
36442;DHT22;64346;50.820;16.274;2023-03-23T07:22:51;21.40;66.00
36442;DHT22;64346;50.820;16.274;2023-03-23T07:25:17;21.70;65.50
36442;DHT22;64346;50.820;16.274;2023-03-23T07:27:46;21.40;65.70
36442;DHT22;64346;50.820;16.274;2023-03-23T07:30:13;20.40;67.30
36442;DHT22;64346;50.820;16.274;2023-03-23T07:32:41;19.30;69.70
36442;DHT22;64346;50.820;16.274;2023-03-23T07:35:10;18.40;71.60
36442;DHT22;64346;50.820;16.274;2023-03-23T07:37:37;18.20;73.00
36442;DHT22;64346;50.820;16.274;2023-03-23T07:40:11;18.80;72.60
36442;DHT22;64346;50.820;16.274;2023-03-23T07:42:37;20.70;68.90
36442;DHT22;64346;50.820;16.274;2023-03-23T07:45:03;22.50;66.20
36442;DHT22;64346;50.820;16.274;2023-03-23T07:47:30;24.80;62.50
36442;DHT22;64346;50.820;16.274;2023-03-23T07:49:59;26.70;59.90
36442;DHT22;64346;50.820;16.274;2023-03-23T07:52:25;27.50;57.50
36442;DHT22;64346;50.820;16.274;2023-03-23T07:54:53;27.80;56.70
36442;DHT22;64346;50.820;16.274;2023-03-23T07:57:22;29.20;55.50
36442;DHT22;64346;50.820;16.274;2023-03-23T07:59:50;30.20;53.10
36442;DHT22;64346;50.820;16.274;2023-03-23T08:02:16;28.90;53.10
36442;DHT22;64346;50.820;16.274;2023-03-23T08:04:43;26.00;55.80
36442;DHT22;64346;50.820;16.274;2023-03-23T08:07:11;25.20;57.10
36442;DHT22;64346;50.820;16.274;2023-03-23T08:09:38;24.60;58.60
36442;DHT22;64346;50.820;16.274;2023-03-23T08:12:07;26.30;57.20
36442;DHT22;64346;50.820;16.274;2023-03-23T08:14:33;28.80;54.70
36442;DHT22;64346;50.820;16.274;2023-03-23T08:16:59;30.30;52.70
36442;DHT22;64346;50.820;16.274;2023-03-23T08:19:30;30.30;52.00
36442;DHT22;64346;50.820;16.274;2023-03-23T08:21:56;31.20;51.40
36442;DHT22;64346;50.820;16.274;2023-03-23T08:24:22;32.10;50.40
36442;DHT22;64346;50.820;16.274;2023-03-23T08:26:48;31.30;50.10
36442;DHT22;64346;50.820;16.274;2023-03-23T08:29:15;29.60;51.30
36442;DHT22;64346;50.820;16.274;2023-03-23T08:31:46;27.70;53.10
36442;DHT22;64346;50.820;16.274;2023-03-23T08:34:15;25.40;55.80
36442;DHT22;64346;50.820;16.274;2023-03-23T08:36:41;23.00;59.50
36442;DHT22;64346;50.820;16.274;2023-03-23T08:39:07;21.40;62.80
36442;DHT22;64346;50.820;16.274;2023-03-23T08:41:33;20.40;65.70
36442;DHT22;64346;50.820;16.274;2023-03-23T08:43:59;19.50;67.50
36442;DHT22;64346;50.820;16.274;2023-03-23T08:46:25;18.70;69.30
36442;DHT22;64346;50.820;16.274;2023-03-23T08:48:52;18.30;70.70
36442;DHT22;64346;50.820;16.274;2023-03-23T08:51:18;18.00;71.70
36442;DHT22;64346;50.820;16.274;2023-03-23T08:53:44;17.90;72.10
36442;DHT22;64346;50.820;16.274;2023-03-23T08:56:11;18.10;72.30
36442;DHT22;64346;50.820;16.274;2023-03-23T08:58:37;18.80;71.30
36442;DHT22;64346;50.820;16.274;2023-03-23T09:01:05;19.70;69.10
36442;DHT22;64346;50.820;16.274;2023-03-23T09:03:33;20.50;67.40
36442;DHT22;64346;50.820;16.274;2023-03-23T09:06:03;20.50;67.10
36442;DHT22;64346;50.820;16.274;2023-03-23T09:08:30;20.30;67.30
36442;DHT22;64346;50.820;16.274;2023-03-23T09:10:59;20.20;67.70
36442;DHT22;64346;50.820;16.274;2023-03-23T09:13:27;20.40;68.10
36442;DHT22;64346;50.820;16.274;2023-03-23T09:15:56;23.00;64.80
36442;DHT22;64346;50.820;16.274;2023-03-23T09:18:22;26.30;59.70
36442;DHT22;64346;50.820;16.274;2023-03-23T09:20:53;29.10;56.10
36442;DHT22;64346;50.820;16.274;2023-03-23T09:23:20;31.60;53.60
36442;DHT22;64346;50.820;16.274;2023-03-23T09:25:47;33.60;51.00
36442;DHT22;64346;50.820;16.274;2023-03-23T09:28:13;35.20;49.20
36442;DHT22;64346;50.820;16.274;2023-03-23T09:30:41;36.40;47.30
36442;DHT22;64346;50.820;16.274;2023-03-23T09:33:08;37.20;45.70
36442;DHT22;64346;50.820;16.274;2023-03-23T09:35:37;36.10;44.90
36442;DHT22;64346;50.820;16.274;2023-03-23T09:38:06;33.90;46.20
36442;DHT22;64346;50.820;16.274;2023-03-23T09:41:02;31.70;48.10
36442;DHT22;64346;50.820;16.274;2023-03-23T09:46:47;32.60;48.00
36442;DHT22;64346;50.820;16.274;2023-03-23T09:49:35;32.80;46.80
36442;DHT22;64346;50.820;16.274;2023-03-23T09:52:08;30.70;47.80
36442;DHT22;64346;50.820;16.274;2023-03-23T09:54:50;29.20;49.60
36442;DHT22;64346;50.820;16.274;2023-03-23T10:03:12;26.30;53.60
36442;DHT22;64346;50.820;16.274;2023-03-23T10:11:08;28.10;52.30
36442;DHT22;64346;50.820;16.274;2023-03-23T10:16:09;31.40;49.10
36442;DHT22;64346;50.820;16.274;2023-03-23T10:18:37;31.80;47.90
36442;DHT22;64346;50.820;16.274;2023-03-23T10:21:14;30.70;48.70
36442;DHT22;64346;50.820;16.274;2023-03-23T10:23:52;29.10;50.00
36442;DHT22;64346;50.820;16.274;2023-03-23T10:31:47;23.80;56.20
36442;DHT22;64346;50.820;16.274;2023-03-23T10:39:24;21.70;60.70
36442;DHT22;64346;50.820;16.274;2023-03-23T10:41:54;21.20;61.70
36442;DHT22;64346;50.820;16.274;2023-03-23T10:44:21;20.90;62.50
36442;DHT22;64346;50.820;16.274;2023-03-23T10:55:05;20.00;65.20
36442;DHT22;64346;50.820;16.274;2023-03-23T10:57:34;19.70;65.80
36442;DHT22;64346;50.820;16.274;2023-03-23T11:02:43;19.20;67.50
36442;DHT22;64346;50.820;16.274;2023-03-23T11:05:19;18.90;68.20
36442;DHT22;64346;50.820;16.274;2023-03-23T11:07:53;18.60;68.90
36442;DHT22;64346;50.820;16.274;2023-03-23T11:13:18;18.60;69.40
36442;DHT22;64346;50.820;16.274;2023-03-23T11:15:46;18.80;69.50
36442;DHT22;64346;50.820;16.274;2023-03-23T11:18:20;18.80;69.50
36442;DHT22;64346;50.820;16.274;2023-03-23T11:20:50;19.00;69.70
36442;DHT22;64346;50.820;16.274;2023-03-23T11:23:21;19.10;69.20
36442;DHT22;64346;50.820;16.274;2023-03-23T11:28:30;19.00;69.50
36442;DHT22;64346;50.820;16.274;2023-03-23T11:30:59;18.80;70.20
36442;DHT22;64346;50.820;16.274;2023-03-23T11:33:57;18.70;70.70
36442;DHT22;64346;50.820;16.274;2023-03-23T11:36:29;18.50;70.40
36442;DHT22;64346;50.820;16.274;2023-03-23T11:38:56;18.40;71.40
36442;DHT22;64346;50.820;16.274;2023-03-23T11:41:23;18.40;71.80
36442;DHT22;64346;50.820;16.274;2023-03-23T11:43:54;18.50;71.70
36442;DHT22;64346;50.820;16.274;2023-03-23T11:48:57;18.50;71.60
36442;DHT22;64346;50.820;16.274;2023-03-23T11:51:35;18.40;71.70
36442;DHT22;64346;50.820;16.274;2023-03-23T11:56:38;18.30;72.10
36442;DHT22;64346;50.820;16.274;2023-03-23T11:59:14;18.20;72.40
36442;DHT22;64346;50.820;16.274;2023-03-23T12:13:03;17.80;73.80
36442;DHT22;64346;50.820;16.274;2023-03-23T12:26:23;17.80;74.50
36442;DHT22;64346;50.820;16.274;2023-03-23T12:29:16;17.80;74.60
36442;DHT22;64346;50.820;16.274;2023-03-23T12:42:56;17.90;75.50
36442;DHT22;64346;50.820;16.274;2023-03-23T12:48:26;17.90;76.00
36442;DHT22;64346;50.820;16.274;2023-03-23T12:53:56;17.90;75.40
36442;DHT22;64346;50.820;16.274;2023-03-23T12:59:18;18.00;75.60
36442;DHT22;64346;50.820;16.274;2023-03-23T13:01:54;18.00;75.30
36442;DHT22;64346;50.820;16.274;2023-03-23T13:04:27;18.10;75.70
36442;DHT22;64346;50.820;16.274;2023-03-23T13:06:56;18.20;75.60
36442;DHT22;64346;50.820;16.274;2023-03-23T13:09:36;18.10;75.50
36442;DHT22;64346;50.820;16.274;2023-03-23T13:12:05;18.10;75.70
36442;DHT22;64346;50.820;16.274;2023-03-23T13:28:28;18.00;77.00
36442;DHT22;64346;50.820;16.274;2023-03-23T13:31:00;18.00;76.90
36442;DHT22;64346;50.820;16.274;2023-03-23T13:33:35;18.00;77.20
36442;DHT22;64346;50.820;16.274;2023-03-23T13:36:09;17.90;77.40
36442;DHT22;64346;50.820;16.274;2023-03-23T13:38:36;18.00;77.50
36442;DHT22;64346;50.820;16.274;2023-03-23T13:41:14;18.00;77.60
36442;DHT22;64346;50.820;16.274;2023-03-23T13:43:42;17.90;77.80
36442;DHT22;64346;50.820;16.274;2023-03-23T13:48:51;17.90;78.40
36442;DHT22;64346;50.820;16.274;2023-03-23T13:54:39;17.80;78.50
36442;DHT22;64346;50.820;16.274;2023-03-23T14:03:04;17.60;79.80
36442;DHT22;64346;50.820;16.274;2023-03-23T14:10:42;17.50;80.30
36442;DHT22;64346;50.820;16.274;2023-03-23T14:13:24;17.50;80.50
36442;DHT22;64346;50.820;16.274;2023-03-23T14:18:27;17.60;80.50
36442;DHT22;64346;50.820;16.274;2023-03-23T14:20:55;17.60;80.70
36442;DHT22;64346;50.820;16.274;2023-03-23T14:23:23;17.60;81.00
36442;DHT22;64346;50.820;16.274;2023-03-23T14:25:58;17.60;81.10
36442;DHT22;64346;50.820;16.274;2023-03-23T14:28:31;17.60;81.70
36442;DHT22;64346;50.820;16.274;2023-03-23T14:31:00;17.60;81.60
36442;DHT22;64346;50.820;16.274;2023-03-23T14:33:27;17.60;82.30
36442;DHT22;64346;50.820;16.274;2023-03-23T14:35:54;17.50;82.20
36442;DHT22;64346;50.820;16.274;2023-03-23T14:38:26;17.50;82.60
36442;DHT22;64346;50.820;16.274;2023-03-23T14:40:56;17.40;83.30
36442;DHT22;64346;50.820;16.274;2023-03-23T14:43:25;17.30;84.10
36442;DHT22;64346;50.820;16.274;2023-03-23T14:45:54;17.20;85.10
36442;DHT22;64346;50.820;16.274;2023-03-23T14:48:21;17.10;85.70
36442;DHT22;64346;50.820;16.274;2023-03-23T14:51:01;17.00;86.10
36442;DHT22;64346;50.820;16.274;2023-03-23T14:56:11;16.90;86.60
36442;DHT22;64346;50.820;16.274;2023-03-23T14:58:38;16.90;86.90
36442;DHT22;64346;50.820;16.274;2023-03-23T15:01:15;16.90;86.60
36442;DHT22;64346;50.820;16.274;2023-03-23T15:03:50;16.80;87.10
36442;DHT22;64346;50.820;16.274;2023-03-23T15:06:19;16.80;88.00
36442;DHT22;64346;50.820;16.274;2023-03-23T15:08:49;16.80;87.50
36442;DHT22;64346;50.820;16.274;2023-03-23T15:13:47;16.80;87.60
36442;DHT22;64346;50.820;16.274;2023-03-23T15:16:22;16.80;87.40
36442;DHT22;64346;50.820;16.274;2023-03-23T15:21:49;16.80;87.80
36442;DHT22;64346;50.820;16.274;2023-03-23T15:24:24;16.80;88.00
36442;DHT22;64346;50.820;16.274;2023-03-23T15:26:53;16.80;88.20
36442;DHT22;64346;50.820;16.274;2023-03-23T15:29:22;16.70;88.20
36442;DHT22;64346;50.820;16.274;2023-03-23T15:31:50;16.80;88.50
36442;DHT22;64346;50.820;16.274;2023-03-23T15:34:38;16.70;88.80
36442;DHT22;64346;50.820;16.274;2023-03-23T15:37:06;16.80;89.20
36442;DHT22;64346;50.820;16.274;2023-03-23T15:39:40;16.80;89.40
36442;DHT22;64346;50.820;16.274;2023-03-23T15:42:24;16.80;89.60
36442;DHT22;64346;50.820;16.274;2023-03-23T15:44:56;16.80;89.50
36442;DHT22;64346;50.820;16.274;2023-03-23T15:52:54;16.80;90.10
36442;DHT22;64346;50.820;16.274;2023-03-23T15:55:24;16.80;90.10
36442;DHT22;64346;50.820;16.274;2023-03-23T15:57:55;16.80;90.30
36442;DHT22;64346;50.820;16.274;2023-03-23T16:00:25;16.80;90.50
36442;DHT22;64346;50.820;16.274;2023-03-23T16:02:57;16.70;90.60
36442;DHT22;64346;50.820;16.274;2023-03-23T16:05:28;16.60;90.80
36442;DHT22;64346;50.820;16.274;2023-03-23T16:07:55;16.50;91.00
36442;DHT22;64346;50.820;16.274;2023-03-23T16:10:25;16.40;91.30
36442;DHT22;64346;50.820;16.274;2023-03-23T16:12:52;16.20;91.70
36442;DHT22;64346;50.820;16.274;2023-03-23T16:15:19;16.10;92.00
36442;DHT22;64346;50.820;16.274;2023-03-23T16:17:46;16.00;92.20
36442;DHT22;64346;50.820;16.274;2023-03-23T16:20:16;15.90;92.50
36442;DHT22;64346;50.820;16.274;2023-03-23T16:22:48;15.70;92.90
36442;DHT22;64346;50.820;16.274;2023-03-23T16:25:16;15.60;93.20
36442;DHT22;64346;50.820;16.274;2023-03-23T16:27:46;15.50;93.50
36442;DHT22;64346;50.820;16.274;2023-03-23T16:30:22;15.40;93.80
36442;DHT22;64346;50.820;16.274;2023-03-23T16:32:50;15.40;94.10
36442;DHT22;64346;50.820;16.274;2023-03-23T16:35:19;15.20;94.40
36442;DHT22;64346;50.820;16.274;2023-03-23T16:37:51;15.20;94.70
36442;DHT22;64346;50.820;16.274;2023-03-23T16:40:36;15.10;94.90
36442;DHT22;64346;50.820;16.274;2023-03-23T16:43:04;15.00;95.20
36442;DHT22;64346;50.820;16.274;2023-03-23T16:45:37;14.90;95.40
36442;DHT22;64346;50.820;16.274;2023-03-23T16:48:10;14.90;95.70
36442;DHT22;64346;50.820;16.274;2023-03-23T16:50:41;14.80;96.00
36442;DHT22;64346;50.820;16.274;2023-03-23T16:53:11;14.80;96.30
36442;DHT22;64346;50.820;16.274;2023-03-23T16:55:40;14.70;96.60
36442;DHT22;64346;50.820;16.274;2023-03-23T16:58:10;14.70;97.00
36442;DHT22;64346;50.820;16.274;2023-03-23T17:00:50;14.60;97.30
36442;DHT22;64346;50.820;16.274;2023-03-23T17:03:18;14.50;97.60
36442;DHT22;64346;50.820;16.274;2023-03-23T17:05:49;14.50;97.90
36442;DHT22;64346;50.820;16.274;2023-03-23T17:08:18;14.40;98.20
36442;DHT22;64346;50.820;16.274;2023-03-23T17:10:46;14.40;98.50
36442;DHT22;64346;50.820;16.274;2023-03-23T17:13:16;14.40;98.60
36442;DHT22;64346;50.820;16.274;2023-03-23T17:15:45;14.40;98.80
36442;DHT22;64346;50.820;16.274;2023-03-23T17:18:14;14.40;99.10
36442;DHT22;64346;50.820;16.274;2023-03-23T17:20:42;14.50;99.00
36442;DHT22;64346;50.820;16.274;2023-03-23T17:23:12;14.50;99.00
36442;DHT22;64346;50.820;16.274;2023-03-23T17:25:39;14.40;99.10
36442;DHT22;64346;50.820;16.274;2023-03-23T17:28:09;14.50;99.00
36442;DHT22;64346;50.820;16.274;2023-03-23T17:30:39;14.50;99.00
36442;DHT22;64346;50.820;16.274;2023-03-23T17:33:09;14.50;99.00
36442;DHT22;64346;50.820;16.274;2023-03-23T17:35:40;14.50;99.30
36442;DHT22;64346;50.820;16.274;2023-03-23T17:38:07;14.50;99.10
36442;DHT22;64346;50.820;16.274;2023-03-23T17:40:34;14.50;99.10
36442;DHT22;64346;50.820;16.274;2023-03-23T17:43:01;14.50;99.20
36442;DHT22;64346;50.820;16.274;2023-03-23T17:45:32;14.50;99.20
36442;DHT22;64346;50.820;16.274;2023-03-23T17:47:59;14.50;99.30
36442;DHT22;64346;50.820;16.274;2023-03-23T17:50:26;14.50;99.20
36442;DHT22;64346;50.820;16.274;2023-03-23T17:52:53;14.50;99.30
36442;DHT22;64346;50.820;16.274;2023-03-23T17:55:21;14.50;99.20
36442;DHT22;64346;50.820;16.274;2023-03-23T17:57:48;14.60;99.30
36442;DHT22;64346;50.820;16.274;2023-03-23T18:00:16;14.60;99.30
36442;DHT22;64346;50.820;16.274;2023-03-23T18:02:46;14.60;99.30
36442;DHT22;64346;50.820;16.274;2023-03-23T18:05:13;14.60;99.40
36442;DHT22;64346;50.820;16.274;2023-03-23T18:07:41;14.60;99.50
36442;DHT22;64346;50.820;16.274;2023-03-23T18:10:09;14.60;99.50